Time;durP1;ratioP1;P1;durP2;ratioP2;P2;SDS_P1;SDS_P2;PMS_P1;PMS_P2;Temp;Humidity;BMP_temperature;BMP_pressure;BME280_temperature;BME280_humidity;BME280_pressure;Samples;Min_cycle;Max_cycle;Signal;HPM_P1;HPM_P2
2021/09/17 00:02:00;;;;;;;35.38;9.80;;;23.40;91.30;;;;;;5052662;28;20033;-70
2021/09/17 00:04:26;;;;;;;35.55;8.98;;;23.40;91.50;;;;;;5053088;28;20376;-68
2021/09/17 00:06:52;;;;;;;39.03;9.85;;;23.40;91.20;;;;;;5053032;28;20029;-70
2021/09/17 00:09:20;;;;;;;26.05;8.43;;;23.30;91.20;;;;;;5053056;28;20465;-69
2021/09/17 00:11:46;;;;;;;36.28;9.07;;;23.40;91.30;;;;;;5053048;28;20025;-70
2021/09/17 00:14:14;;;;;;;36.05;9.75;;;23.30;91.50;;;;;;5052735;28;20040;-68
2021/09/17 00:16:40;;;;;;;35.55;11.27;;;23.30;91.60;;;;;;5052981;28;20032;-71
2021/09/17 00:19:06;;;;;;;45.08;12.77;;;23.30;91.70;;;;;;5052653;28;20386;-69
2021/09/17 00:21:32;;;;;;;51.95;13.07;;;23.30;92.30;;;;;;5052887;28;20036;-69
2021/09/17 00:23:58;;;;;;;41.55;15.25;;;23.30;92.10;;;;;;5052799;28;20104;-69
2021/09/17 00:26:23;;;;;;;45.97;15.35;;;23.20;92.30;;;;;;5052955;28;20587;-69
2021/09/17 00:28:50;;;;;;;43.95;14.30;;;23.20;92.80;;;;;;5052832;28;20032;-68
2021/09/17 00:31:16;;;;;;;42.40;14.07;;;23.10;93.00;;;;;;5052824;28;20028;-68
2021/09/17 00:33:42;;;;;;;40.28;12.90;;;23.10;93.30;;;;;;5031230;28;20476;-68
2021/09/17 00:36:12;;;;;;;40.90;11.43;;;23.10;93.80;;;;;;5032556;28;20108;-69
2021/09/17 00:38:37;;;;;;;33.10;10.60;;;23.00;94.70;;;;;;5032920;28;20029;-71
2021/09/17 00:41:03;;;;;;;35.03;10.02;;;23.00;95.40;;;;;;5031510;28;20382;-71
2021/09/17 00:43:29;;;;;;;42.58;11.57;;;23.00;95.90;;;;;;5032845;28;20030;-69
2021/09/17 00:45:55;;;;;;;40.80;10.52;;;22.90;96.10;;;;;;5032494;28;20033;-69
2021/09/17 00:48:21;;;;;;;37.80;9.30;;;22.80;96.60;;;;;;5031464;28;20034;-69
2021/09/17 00:50:47;;;;;;;30.83;9.70;;;22.80;96.50;;;;;;5033078;28;20111;-69
2021/09/17 00:53:13;;;;;;;42.60;11.85;;;22.70;97.90;;;;;;5032738;28;20029;-68
2021/09/17 00:55:39;;;;;;;31.02;10.48;;;22.70;98.80;;;;;;5031413;28;20030;-69
2021/09/17 00:58:05;;;;;;;32.47;9.43;;;22.50;99.80;;;;;;5032377;28;20076;-72
2021/09/17 01:00:30;;;;;;;37.10;9.77;;;22.60;99.90;;;;;;5032633;28;20040;-72
2021/09/17 01:02:56;;;;;;;36.10;9.52;;;22.50;99.90;;;;;;5032634;28;20450;-72
2021/09/17 01:05:22;;;;;;;29.45;9.98;;;22.50;99.90;;;;;;5031231;28;20026;-73
2021/09/17 01:07:48;;;;;;;42.92;10.05;;;22.40;99.90;;;;;;5032602;28;20040;-73
2021/09/17 01:10:15;;;;;;;36.60;11.70;;;22.40;99.90;;;;;;5031298;28;20076;-71
2021/09/17 01:12:41;;;;;;;34.00;10.50;;;22.40;99.90;;;;;;5032958;28;20037;-72
2021/09/17 01:15:09;;;;;;;28.27;10.30;;;;;;;;;;5036285;28;20026;-70
2021/09/17 01:17:39;;;;;;;35.53;10.43;;;22.30;99.90;;;;;;5036159;28;20021;-73
2021/09/17 01:20:08;;;;;;;39.00;14.02;;;22.30;99.90;;;;;;5034797;28;20034;-72
2021/09/17 01:22:40;;;;;;;34.33;12.18;;;;;;;;;;5034746;28;20120;-71
2021/09/17 01:25:09;;;;;;;37.28;11.98;;;22.30;99.90;;;;;;5034636;28;20489;-74
2021/09/17 01:27:35;;;;;;;42.13;14.02;;;22.20;99.90;;;;;;5034744;28;20048;-72
2021/09/17 01:30:01;;;;;;;40.22;14.95;;;22.10;99.90;;;;;;5035695;28;20044;-71
2021/09/17 01:32:27;;;;;;;39.35;14.98;;;22.10;99.90;;;;;;5035613;28;20028;-71
2021/09/17 01:34:53;;;;;;;48.72;15.60;;;;;;;;;;5052998;28;20057;-71
2021/09/17 01:37:20;;;;;;;43.95;17.27;;;;;;;;;;5055724;28;20053;-72
2021/09/17 01:39:46;;;;;;;38.00;14.90;;;;;;;;;;5037742;28;20443;-72
2021/09/17 01:42:12;;;;;;;51.58;19.27;;;;;;;;;;5037653;28;20119;-70
2021/09/17 01:44:39;;;;;;;41.50;19.33;;;;;;;;;;5037533;28;20465;-72
2021/09/17 01:47:06;;;;;;;46.08;16.60;;;;;;;;;;5037623;28;20481;-71
2021/09/17 01:49:32;;;;;;;45.13;16.88;;;;;;;;;;5055457;28;20040;-72
2021/09/17 01:51:59;;;;;;;49.85;15.73;;;;;;;;;;5055407;28;20043;-71
2021/09/17 01:54:25;;;;;;;37.55;12.15;;;;;;;;;;5055372;28;20024;-71
2021/09/17 01:56:52;;;;;;;34.22;11.05;;;;;;;;;;5055651;28;20028;-70
2021/09/17 01:59:18;;;;;;;26.27;11.40;;;;;;;;;;5055323;28;20032;-71
2021/09/17 02:01:44;;;;;;;38.28;10.85;;;;;;;;;;5055233;28;20021;-71
2021/09/17 02:04:10;;;;;;;33.33;10.32;;;;;;;;;;5037237;28;20484;-72
2021/09/17 02:06:36;;;;;;;40.05;10.18;;;;;;;;;;5037303;28;20029;-70
2021/09/17 02:09:03;;;;;;;37.75;10.38;;;;;;;;;;5055124;28;20397;-71
2021/09/17 02:11:29;;;;;;;37.05;10.50;;;;;;;;;;5055068;28;20029;-70
2021/09/17 02:13:56;;;;;;;43.08;10.20;;;;;;;;;;5055001;28;20028;-70
2021/09/17 02:16:24;;;;;;;37.35;10.50;;;;;;;;;;5036803;28;20021;-71
2021/09/17 02:18:50;;;;;;;33.85;9.93;;;;;;;;;;5054936;28;20257;-69
2021/09/17 02:21:21;;;;;;;35.03;10.48;;;;;;;;;;5036990;28;20116;-72
2021/09/17 02:23:47;;;;;;;32.85;9.30;;;;;;;;;;5054901;28;20025;-72
2021/09/17 02:26:14;;;;;;;32.60;9.68;;;;;;;;;;5054137;28;20037;-72
2021/09/17 02:28:40;;;;;;;33.50;9.32;;;;;;;;;;5036888;28;20033;-72
2021/09/17 02:31:06;;;;;;;34.25;10.00;;;;;;;;;;5054744;28;20018;-73
2021/09/17 02:33:33;;;;;;;37.13;9.60;;;;;;;;;;5036475;28;20051;-72
2021/09/17 02:35:59;;;;;;;39.90;9.30;;;;;;;;;;5036641;28;20029;-73
2021/09/17 02:38:26;;;;;;;31.52;9.18;;;;;;;;;;5036619;28;20032;-70
2021/09/17 02:40:52;;;;;;;30.75;9.32;;;;;;;;;;5054596;28;20062;-68
2021/09/17 02:43:21;;;;;;;31.27;9.18;;;;;;;;;;5054466;28;20033;-70
2021/09/17 02:45:47;;;;;;;35.20;8.05;;;;;;;;;;5054408;28;20036;-70
2021/09/17 02:48:14;;;;;;;30.13;8.50;;;;;;;;;;5054115;28;20029;-71
2021/09/17 02:50:40;;;;;;;27.50;8.23;;;;;;;;;;5036373;28;20025;-71
2021/09/17 02:53:07;;;;;;;30.13;7.80;;;;;;;;;;5054303;28;20067;-71
2021/09/17 02:55:33;;;;;;;33.63;8.77;;;;;;;;;;5054521;28;20052;-73
2021/09/17 02:58:03;;;;;;;31.15;9.52;;;;;;;;;;5036260;28;20070;-70
2021/09/17 03:00:30;;;;;;;31.50;8.20;;;;;;;;;;5054173;28;20017;-70
2021/09/17 03:02:56;;;;;;;27.55;8.48;;;;;;;;;;5054098;28;20028;-72
2021/09/17 03:05:22;;;;;;;37.13;8.27;;;;;;;;;;5036101;28;20052;-70
2021/09/17 03:07:49;;;;;;;27.38;8.63;;;;;;;;;;5036146;28;20025;-72
2021/09/17 03:10:15;;;;;;;28.70;8.75;;;;;;;;;;5036063;28;20350;-71
2021/09/17 03:12:41;;;;;;;29.25;8.85;;;;;;;;;;5035976;28;20029;-70
2021/09/17 03:15:08;;;;;;;32.95;9.10;;;;;;;;;;5035971;28;20495;-72
2021/09/17 03:17:34;;;;;;;40.75;10.25;;;;;;;;;;5035968;28;20538;-71
2021/09/17 03:20:00;;;;;;;33.58;9.55;;;;;;;;;;5053757;28;20023;-72
2021/09/17 03:22:27;;;;;;;30.20;8.98;;;;;;;;;;5053749;28;20094;-73
2021/09/17 03:24:53;;;;;;;34.75;9.07;;;;;;;;;;5053325;28;20025;-71
2021/09/17 03:27:19;;;;;;;27.92;8.38;;;;;;;;;;5053966;28;20039;-71
2021/09/17 03:29:45;;;;;;;37.83;9.52;;;;;;;;;;5053652;28;20027;-71
2021/09/17 03:32:11;;;;;;;35.50;9.05;;;;;;;;;;5053597;28;20099;-73
2021/09/17 03:34:38;;;;;;;34.38;9.02;;;;;;;;;;5053548;28;20118;-71
2021/09/17 03:37:04;;;;;;;33.60;9.18;;;;;;;;;;5052650;28;20822;-73
2021/09/17 03:39:31;;;;;;;35.05;9.50;;;;;;;;;;5035569;28;20032;-71
2021/09/17 03:41:57;;;;;;;35.85;10.52;;;;;;;;;;5053443;28;20033;-72
2021/09/17 03:44:23;;;;;;;40.10;9.73;;;;;;;;;;5053571;28;20048;-71
2021/09/17 03:46:49;;;;;;;33.50;10.88;;;;;;;;;;5053342;28;20025;-71
2021/09/17 03:49:16;;;;;;;33.67;10.70;;;;;;;;;;5052999;28;20385;-71
2021/09/17 03:51:42;;;;;;;33.25;9.18;;;;;;;;;;5053248;28;20078;-71
2021/09/17 03:54:08;;;;;;;31.95;10.43;;;;;;;;;;5035339;28;20032;-72
2021/09/17 03:56:34;;;;;;;42.25;10.25;;;;;;;;;;5052905;28;20060;-73
2021/09/17 03:59:00;;;;;;;37.90;10.23;;;;;;;;;;5053149;28;20082;-73
2021/09/17 04:01:27;;;;;;;36.20;10.32;;;;;;;;;;5035259;28;20029;-71
2021/09/17 04:03:53;;;;;;;36.72;9.07;;;;;;;;;;5035171;28;20029;-72
2021/09/17 04:06:19;;;;;;;39.17;9.05;;;;;;;;;;5034881;28;20029;-70
2021/09/17 04:08:45;;;;;;;34.08;9.43;;;;;;;;;;5052721;28;20025;-71
2021/09/17 04:11:11;;;;;;;34.47;10.50;;;;;;;;;;5053016;28;20033;-70
2021/09/17 04:13:38;;;;;;;39.60;10.18;;;;;;;;;;5052729;28;20108;-74
2021/09/17 04:16:04;;;;;;;46.92;10.75;;;;;;;;;;5035060;28;20043;-70
2021/09/17 04:18:32;;;;;;;30.17;10.68;;;;;;;;;;5035026;28;20026;-69
2021/09/17 04:20:58;;;;;;;41.60;12.10;;;;;;;;;;5052931;28;20028;-67
2021/09/17 04:23:24;;;;;;;39.33;10.57;;;;;;;;;;5052910;28;20090;-68
2021/09/17 04:25:51;;;;;;;35.95;10.48;;;;;;;;;;5034797;28;20036;-69
2021/09/17 04:28:17;;;;;;;40.42;11.20;;;;;;;;;;5052888;28;20116;-69
2021/09/17 04:30:43;;;;;;;35.30;10.32;;;;;;;;;;5053074;28;20485;-69
2021/09/17 04:33:14;;;;;;;38.08;11.07;;;22.10;99.90;;;;;;5052518;28;20052;-73
2021/09/17 04:35:41;;;;;;;31.98;9.50;;;;;;;;;;5052825;28;20029;-71
2021/09/17 04:38:07;;;;;;;38.83;9.57;;;;;;;;;;5052787;28;20017;-71
2021/09/17 04:40:33;;;;;;;30.33;8.75;;;;;;;;;;5053015;28;20462;-72
2021/09/17 04:42:59;;;;;;;34.03;9.68;;;21.70;96.20;;;;;;5052713;28;20561;-72
2021/09/17 04:45:25;;;;;;;30.30;9.10;;;21.70;95.20;;;;;;5052586;28;20064;-71
2021/09/17 04:47:52;;;;;;;28.38;9.18;;;;;;;;;;5035527;28;20033;-69
2021/09/17 04:50:17;;;;;;;32.72;8.77;;;21.70;94.90;;;;;;5056593;28;20032;-71
2021/09/17 04:52:44;;;;;;;30.48;8.45;;;21.80;95.30;;;;;;5056586;28;20029;-72
2021/09/17 04:55:10;;;;;;;46.92;10.88;;;21.90;95.20;;;;;;5056255;28;20389;-69
2021/09/17 04:57:36;;;;;;;39.42;10.45;;;21.90;95.50;;;;;;5038632;28;20037;-69
2021/09/17 05:00:04;;;;;;;31.10;9.50;;;21.90;95.80;;;;;;5038471;28;20112;-71
2021/09/17 05:02:30;;;;;;;37.80;9.88;;;21.90;96.00;;;;;;5056454;28;20103;-69
2021/09/17 05:04:56;;;;;;;38.83;9.23;;;21.90;96.50;;;;;;5056311;28;20381;-70
2021/09/17 05:07:22;;;;;;;30.42;9.63;;;22.00;96.60;;;;;;5038364;28;20033;-69
2021/09/17 05:09:48;;;;;;;27.63;8.55;;;22.00;96.20;;;;;;5038264;28;20025;-69
2021/09/17 05:12:14;;;;;;;40.08;10.02;;;;;;;;;;5056225;28;20029;-69
2021/09/17 05:14:40;;;;;;;43.88;9.35;;;;;;;;;;5055863;28;20417;-70
2021/09/17 05:17:09;;;;;;;42.42;11.25;;;;;;;;;;5056148;28;20659;-71
2021/09/17 05:19:34;;;;;;;33.65;10.77;;;22.00;95.90;;;;;;5056034;28;20021;-70
2021/09/17 05:22:00;;;;;;;36.22;10.38;;;22.00;98.50;;;;;;5038061;28;20099;-71
2021/09/17 05:24:30;;;;;;;34.20;10.45;;;22.00;98.80;;;;;;5055556;28;20032;-70
2021/09/17 05:26:55;;;;;;;36.65;10.20;;;22.00;98.60;;;;;;5056143;28;20033;-70
2021/09/17 05:29:21;;;;;;;39.88;9.85;;;21.90;99.40;;;;;;5037829;28;20036;-71
2021/09/17 05:31:47;;;;;;;35.55;10.20;;;21.90;98.90;;;;;;5055704;28;20044;-69
2021/09/17 05:34:17;;;;;;;48.53;11.70;;;21.90;99.40;;;;;;5055664;28;20049;-70
2021/09/17 05:36:43;;;;;;;43.47;9.60;;;;;;;;;;5055558;28;20029;-70
2021/09/17 05:39:10;;;;;;;40.25;11.68;;;;;;;;;;5055610;28;20108;-70
2021/09/17 05:41:36;;;;;;;32.53;10.15;;;;;;;;;;5037581;28;20021;-69
2021/09/17 05:44:02;;;;;;;29.38;10.20;;;;;;;;;;5055435;28;20017;-68
2021/09/17 05:46:28;;;;;;;33.25;9.27;;;;;;;;;;5055101;28;20112;-70
2021/09/17 05:48:54;;;;;;;42.08;11.20;;;;;;;;;;5055375;28;20487;-70
2021/09/17 05:51:20;;;;;;;39.42;11.35;;;21.90;99.50;;;;;;5037056;28;20037;-69
2021/09/17 05:53:46;;;;;;;45.63;10.93;;;22.60;99.90;;;;;;5055347;28;20025;-70
2021/09/17 05:56:12;;;;;;;28.52;10.18;;;22.70;99.60;;;;;;5037188;28;20025;-71
2021/09/17 05:58:37;;;;;;;38.40;10.45;;;22.70;99.30;;;;;;5055157;28;20032;-74
2021/09/17 06:01:04;;;;;;;32.50;10.02;;;22.70;99.90;;;;;;5036248;28;20021;-73
2021/09/17 06:03:30;;;;;;;31.00;9.57;;;22.70;99.90;;;;;;5055093;28;20058;-73
2021/09/17 06:05:56;;;;;;;38.25;10.95;;;22.60;99.90;;;;;;5054710;28;20492;-73
2021/09/17 06:08:21;;;;;;;32.88;10.25;;;22.60;99.90;;;;;;5055115;28;20032;-71
2021/09/17 06:10:47;;;;;;;37.70;10.65;;;22.50;99.90;;;;;;5055046;28;20363;-72
2021/09/17 06:13:13;;;;;;;32.58;9.93;;;22.50;99.90;;;;;;5055064;28;20100;-70
2021/09/17 06:15:39;;;;;;;36.30;11.48;;;22.60;99.90;;;;;;5054974;28;20458;-69
2021/09/17 06:18:05;;;;;;;39.15;11.07;;;22.50;99.80;;;;;;5036953;28;20021;-72
2021/09/17 06:20:32;;;;;;;38.10;11.38;;;22.50;99.60;;;;;;5054554;28;20036;-72
2021/09/17 06:22:57;;;;;;;39.90;11.18;;;22.50;99.90;;;;;;5054767;28;20025;-75
2021/09/17 06:25:23;;;;;;;28.92;9.88;;;22.60;99.70;;;;;;5054671;28;20036;-73
2021/09/17 06:27:50;;;;;;;38.65;10.60;;;22.70;99.10;;;;;;5054828;28;20029;-70
2021/09/17 06:30:18;;;;;;;36.88;9.98;;;22.80;99.20;;;;;;5054464;28;20383;-73
2021/09/17 06:33:02;;;;;;;34.92;9.15;;;22.80;98.70;;;;;;5041016;28;20124;-73
2021/09/17 06:35:28;;;;;;;23.70;8.55;;;22.80;97.80;;;;;;5034165;28;20050;-71
2021/09/17 06:37:55;;;;;;;25.67;8.52;;;22.90;96.80;;;;;;5034955;28;20032;-71
2021/09/17 06:40:23;;;;;;;28.92;8.60;;;23.00;96.20;;;;;;5034562;28;20036;-71
2021/09/17 06:42:50;;;;;;;39.05;9.38;;;23.20;95.20;;;;;;5034549;28;20104;-69
2021/09/17 06:45:16;;;;;;;29.45;9.60;;;23.30;94.60;;;;;;5034461;28;20116;-69
2021/09/17 06:47:49;;;;;;;31.45;9.15;;;23.40;94.00;;;;;;5016654;28;20503;-70
2021/09/17 06:50:16;;;;;;;39.90;10.20;;;23.40;93.80;;;;;;5034461;28;20025;-70
2021/09/17 06:52:47;;;;;;;32.33;8.43;;;23.40;93.70;;;;;;5033924;28;20033;-69
2021/09/17 06:55:15;;;;;;;37.00;10.23;;;23.40;93.80;;;;;;5034330;28;20363;-70
2021/09/17 06:57:49;;;;;;;27.20;8.82;;;23.40;93.80;;;;;;5016237;28;20040;-69
2021/09/17 07:00:18;;;;;;;27.05;8.80;;;23.50;93.50;;;;;;5034319;28;20030;-69
2021/09/17 07:02:43;;;;;;;45.42;8.82;;;23.50;93.30;;;;;;5034489;28;20087;-70
2021/09/17 07:05:10;;;;;;;35.22;9.23;;;23.60;93.70;;;;;;5034034;28;20034;-70
2021/09/17 07:07:36;;;;;;;26.35;8.98;;;23.70;93.10;;;;;;5034072;28;20033;-70
2021/09/17 07:10:04;;;;;;;34.30;9.75;;;23.80;92.80;;;;;;5016215;28;20025;-71
2021/09/17 07:12:30;;;;;;;47.72;12.00;;;24.00;92.50;;;;;;5033603;28;20075;-70
2021/09/17 07:14:56;;;;;;;45.95;9.48;;;24.20;91.90;;;;;;5034098;28;20037;-71
2021/09/17 07:17:22;;;;;;;42.10;10.55;;;24.20;91.70;;;;;;5033830;28;20461;-70
2021/09/17 07:19:48;;;;;;;29.90;9.25;;;24.30;90.60;;;;;;5033873;28;20143;-71
2021/09/17 07:22:14;;;;;;;38.22;10.23;;;24.40;90.70;;;;;;5034087;28;20033;-71
2021/09/17 07:24:40;;;;;;;38.03;9.75;;;24.50;90.60;;;;;;5033677;28;20030;-72
2021/09/17 07:27:06;;;;;;;34.65;11.65;;;24.40;90.30;;;;;;5016001;28;20041;-71
2021/09/17 07:29:32;;;;;;;41.72;12.77;;;24.40;90.20;;;;;;5033680;28;20406;-71
2021/09/17 07:31:58;;;;;;;56.15;19.55;;;24.50;90.20;;;;;;5033689;28;20026;-72
2021/09/17 07:34:23;;;;;;;35.42;12.82;;;24.50;90.20;;;;;;5012117;28;20486;-70
2021/09/17 07:36:49;;;;;;;30.90;12.77;;;24.50;89.90;;;;;;5013736;28;20454;-70
2021/09/17 07:39:15;;;;;;;41.38;13.63;;;24.40;90.00;;;;;;5012453;28;20030;-71
2021/09/17 07:41:41;;;;;;;31.95;9.20;;;24.30;89.70;;;;;;5012416;28;20541;-72
2021/09/17 07:44:07;;;;;;;45.35;12.15;;;24.20;89.50;;;;;;5013704;28;20028;-71
2021/09/17 07:46:33;;;;;;;45.10;14.45;;;24.10;90.00;;;;;;5013637;28;20033;-71
2021/09/17 07:48:59;;;;;;;43.97;18.58;;;24.00;90.30;;;;;;5013685;28;20072;-71
2021/09/17 07:51:25;;;;;;;32.15;13.32;;;24.10;90.70;;;;;;5012318;28;20030;-72
2021/09/17 07:53:51;;;;;;;42.35;12.90;;;24.10;90.80;;;;;;5012295;28;20030;-71
2021/09/17 07:56:16;;;;;;;41.17;15.23;;;24.00;90.80;;;;;;5012253;28;20489;-69
2021/09/17 07:58:42;;;;;;;47.95;14.38;;;24.00;90.80;;;;;;5011892;28;20037;-72
2021/09/17 08:01:08;;;;;;;28.90;11.65;;;24.20;90.80;;;;;;5012143;28;20030;-71
2021/09/17 08:03:34;;;;;;;35.13;10.30;;;24.30;90.30;;;;;;5013722;28;20029;-72
2021/09/17 08:06:00;;;;;;;42.70;11.77;;;24.30;90.40;;;;;;5013223;28;20034;-71
2021/09/17 08:08:27;;;;;;;32.17;10.27;;;24.30;90.50;;;;;;5011989;28;20449;-71
2021/09/17 08:10:54;;;;;;;30.25;10.20;;;24.20;90.40;;;;;;5011761;28;20064;-70
2021/09/17 08:13:20;;;;;;;40.45;11.02;;;24.30;90.30;;;;;;5013067;28;20026;-72
2021/09/17 08:15:46;;;;;;;31.63;10.00;;;24.60;90.20;;;;;;5013430;28;20033;-72
2021/09/17 08:18:12;;;;;;;32.20;9.48;;;24.90;88.40;;;;;;5011885;28;20030;-71
2021/09/17 08:20:40;;;;;;;39.63;10.95;;;25.10;88.20;;;;;;5013138;28;20672;-73
2021/09/17 08:23:06;;;;;;;34.78;10.48;;;25.10;86.10;;;;;;5014469;28;20168;-72
2021/09/17 08:25:33;;;;;;;37.67;9.68;;;25.20;86.80;;;;;;5019682;28;20375;-73
2021/09/17 08:27:58;;;;;;;35.17;10.77;;;25.30;86.00;;;;;;5018903;28;20481;-72
2021/09/17 08:30:24;;;;;;;36.20;9.63;;;25.40;85.20;;;;;;5017990;28;20061;-73
2021/09/17 08:32:50;;;;;;;34.88;9.63;;;25.50;84.30;;;;;;5019139;28;20080;-72
2021/09/17 08:35:16;;;;;;;37.50;12.18;;;25.50;83.80;;;;;;5035703;28;20056;-72
2021/09/17 08:37:43;;;;;;;43.22;10.98;;;25.70;84.20;;;;;;5020592;28;20041;-72
2021/09/17 08:40:09;;;;;;;38.28;12.15;;;25.80;83.40;;;;;;5039119;28;20035;-72
2021/09/17 08:42:38;;;;;;;40.05;12.38;;;25.90;81.70;;;;;;5039124;28;20083;-71
2021/09/17 08:45:05;;;;;;;45.03;11.77;;;26.30;82.60;;;;;;5021195;28;20477;-72
2021/09/17 08:47:31;;;;;;;32.83;10.27;;;26.50;82.00;;;;;;5038976;28;20382;-72
2021/09/17 08:49:57;;;;;;;36.00;9.73;;;26.70;81.20;;;;;;5021493;28;20052;-72
2021/09/17 08:52:23;;;;;;;32.05;9.15;;;27.00;79.70;;;;;;5039210;28;20030;-73
2021/09/17 08:54:49;;;;;;;24.52;7.32;;;27.40;79.30;;;;;;5021375;28;20480;-73
2021/09/17 08:57:15;;;;;;;34.72;8.13;;;27.60;75.60;;;;;;5038761;28;20076;-72
2021/09/17 08:59:43;;;;;;;25.17;7.95;;;27.80;73.10;;;;;;5039022;28;20029;-73
2021/09/17 09:02:29;;;;;;;28.42;9.05;;;27.60;73.60;;;;;;5038927;28;20500;-73
2021/09/17 09:05:00;;;;;;;25.27;7.53;;;27.40;74.50;;;;;;5038443;28;20079;-72
2021/09/17 09:07:39;;;;;;;32.22;9.73;;;27.40;73.70;;;;;;5038772;28;20025;-72
2021/09/17 09:10:05;;;;;;;23.63;7.80;;;27.90;74.30;;;;;;5036883;28;20025;-73
2021/09/17 09:12:31;;;;;;;30.05;8.77;;;28.10;72.60;;;;;;5038505;28;20029;-73
2021/09/17 09:15:29;;;;;;;28.73;8.52;;;28.20;71.50;;;;;;5020688;28;20030;-71
2021/09/17 09:17:58;;;;;;;26.85;7.68;;;28.10;71.40;;;;;;5036897;28;20045;-71
2021/09/17 09:20:39;;;;;;;26.58;8.02;;;28.00;72.40;;;;;;5038100;28;20417;-71
2021/09/17 09:23:07;;;;;;;21.88;8.23;;;27.80;70.60;;;;;;5038955;28;20022;-75
2021/09/17 09:26:02;;;;;;;25.63;8.60;;;27.90;70.00;;;;;;5021052;28;20029;-71
2021/09/17 09:28:36;;;;;;;26.20;8.23;;;28.00;71.70;;;;;;5021097;28;20486;-71
2021/09/17 09:31:13;;;;;;;34.50;8.38;;;28.20;71.00;;;;;;5021168;28;20080;-71
2021/09/17 09:33:47;;;;;;;27.50;8.25;;;28.30;71.80;;;;;;5036925;28;20042;-72
2021/09/17 09:36:15;;;;;;;25.40;7.28;;;28.20;70.90;;;;;;5035750;28;20037;-71
2021/09/17 09:38:53;;;;;;;23.20;7.18;;;28.10;67.90;;;;;;5017955;28;20033;-73
2021/09/17 09:41:23;;;;;;;32.45;7.07;;;28.10;66.90;;;;;;5035703;28;20025;-72
2021/09/17 09:43:55;;;;;;;26.83;6.78;;;28.10;66.50;;;;;;5035957;28;20029;-71
2021/09/17 09:46:38;;;;;;;40.25;8.32;;;28.10;66.40;;;;;;5035615;28;20030;-72
2021/09/17 09:49:25;;;;;;;29.88;7.03;;;28.20;68.10;;;;;;5035610;28;20033;-71
2021/09/17 09:52:06;;;;;;;23.85;8.43;;;28.20;66.30;;;;;;5035514;28;20029;-70
2021/09/17 09:54:33;;;;;;;29.25;6.60;;;28.20;66.10;;;;;;5017566;28;20080;-72
2021/09/17 09:57:01;;;;;;;23.55;7.40;;;28.30;67.10;;;;;;5017176;28;20171;-71
2021/09/17 09:59:29;;;;;;;29.02;9.00;;;28.60;64.60;;;;;;5017569;28;20465;-71
2021/09/17 10:01:57;;;;;;;29.02;8.25;;;28.80;65.50;;;;;;5035079;28;20037;-73
2021/09/17 10:04:24;;;;;;;23.60;7.55;;;28.90;63.60;;;;;;5017199;28;20116;-72
2021/09/17 10:07:11;;;;;;;20.55;7.68;;;29.00;64.50;;;;;;5017339;28;20488;-72
2021/09/17 10:09:40;;;;;;;21.70;6.65;;;29.30;64.10;;;;;;5034520;28;20534;-72
2021/09/17 10:12:09;;;;;;;27.75;7.10;;;29.20;63.10;;;;;;5017295;28;20033;-72
2021/09/17 10:14:36;;;;;;;25.10;7.25;;;29.00;62.80;;;;;;5016999;28;20025;-72
2021/09/17 10:17:06;;;;;;;21.58;6.47;;;;;;;;;;5016976;28;20484;-71
2021/09/17 10:19:33;;;;;;;23.40;7.25;;;;;;;;;;5035040;28;20014;-71
2021/09/17 10:22:00;;;;;;;19.55;6.60;;;30.70;62.00;;;;;;5035057;28;20536;-72
2021/09/17 10:24:26;;;;;;;18.33;6.82;;;30.70;73.50;;;;;;5034755;28;20061;-72
2021/09/17 10:27:20;;;;;;;16.48;6.38;;;30.60;61.10;;;;;;5034695;28;20490;-74
2021/09/17 10:29:56;;;;;;;16.95;6.45;;;;;;;;;;5031400;28;20045;-71
2021/09/17 10:32:39;;;;;;;29.08;6.72;;;30.40;62.00;;;;;;5016886;28;20104;-73
2021/09/17 10:35:37;;;;;;;25.88;6.70;;;;;;;;;;5034715;28;20378;-72
2021/09/17 10:38:15;;;;;;;20.50;6.53;;;31.50;61.70;;;;;;5005488;28;20030;-72
2021/09/17 10:40:55;;;;;;;31.45;7.65;;;31.70;58.10;;;;;;5034562;28;20053;-73
2021/09/17 10:43:31;;;;;;;20.90;6.72;;;31.50;58.60;;;;;;5034514;28;20045;-73
2021/09/17 10:46:09;;;;;;;27.48;8.85;;;31.40;59.30;;;;;;5033873;28;20033;-73
2021/09/17 10:48:41;;;;;;;37.58;7.40;;;31.50;57.90;;;;;;5034378;28;20088;-72
2021/09/17 10:51:08;;;;;;;19.08;6.70;;;31.30;57.60;;;;;;5034374;28;20029;-72
2021/09/17 10:53:44;;;;;;;19.77;5.95;;;30.80;57.70;;;;;;5016494;28;20033;-72
2021/09/17 10:56:16;;;;;;;18.13;6.65;;;30.30;58.60;;;;;;5034289;28;20022;-75
2021/09/17 10:59:06;;;;;;;19.77;6.93;;;30.00;60.30;;;;;;5016422;28;20099;-71
2021/09/17 11:01:49;;;;;;;24.33;6.32;;;29.60;60.60;;;;;;5016168;28;20075;-70
2021/09/17 11:04:24;;;;;;;20.00;6.53;;;29.20;62.50;;;;;;5034235;28;20033;-72
2021/09/17 11:06:51;;;;;;;21.38;6.18;;;29.00;62.30;;;;;;5034071;28;20099;-72
2021/09/17 11:09:44;;;;;;;21.67;7.47;;;28.70;62.40;;;;;;5033907;28;20064;-71
2021/09/17 11:12:19;;;;;;;22.13;6.43;;;28.50;62.40;;;;;;5034026;28;20026;-72
2021/09/17 11:15:14;;;;;;;22.85;7.05;;;28.40;62.10;;;;;;5016153;28;20030;-73
2021/09/17 11:17:56;;;;;;;20.58;7.03;;;28.40;63.20;;;;;;5033834;28;20462;-72
2021/09/17 11:20:27;;;;;;;29.30;6.63;;;28.60;63.50;;;;;;5016021;28;20034;-72
2021/09/17 11:23:00;;;;;;;27.65;6.60;;;28.60;65.20;;;;;;5016021;28;20362;-73
2021/09/17 11:25:33;;;;;;;27.25;7.15;;;28.70;66.90;;;;;;5015800;28;20040;-72
2021/09/17 11:28:00;;;;;;;18.52;7.13;;;28.70;68.30;;;;;;5033747;28;20120;-72
2021/09/17 11:30:29;;;;;;;19.15;6.22;;;28.70;69.00;;;;;;5033692;28;20057;-72
2021/09/17 11:32:55;;;;;;;37.42;14.23;;;28.70;68.90;;;;;;5015913;28;20124;-71
2021/09/17 11:35:22;;;;;;;24.77;8.02;;;28.70;69.00;;;;;;5033005;28;20053;-71
2021/09/17 11:37:58;;;;;;;20.98;7.05;;;28.70;68.50;;;;;;5033467;28;20112;-70
2021/09/17 11:40:29;;;;;;;24.58;7.72;;;28.70;66.30;;;;;;5033293;28;20030;-73
2021/09/17 11:42:56;;;;;;;29.33;7.43;;;28.60;66.20;;;;;;5033138;28;20025;-71
2021/09/17 11:45:25;;;;;;;20.05;6.53;;;28.70;64.90;;;;;;5032849;28;20029;-73
2021/09/17 11:47:53;;;;;;;22.40;7.97;;;28.60;65.30;;;;;;5032969;28;20100;-72
2021/09/17 11:50:25;;;;;;;22.90;7.68;;;28.50;65.10;;;;;;5015384;28;20072;-73
2021/09/17 11:52:52;;;;;;;24.67;7.68;;;28.50;65.20;;;;;;5015164;28;20035;-71
2021/09/17 11:55:26;;;;;;;30.30;8.77;;;28.50;65.60;;;;;;5014907;28;20034;-71
2021/09/17 11:57:56;;;;;;;20.92;7.22;;;28.50;64.70;;;;;;5014245;28;20054;-71
2021/09/17 12:00:24;;;;;;;22.75;6.97;;;28.50;65.60;;;;;;5032785;28;20044;-72
2021/09/17 12:02:54;;;;;;;25.98;7.57;;;28.50;65.80;;;;;;5033021;28;20026;-73
2021/09/17 12:05:27;;;;;;;14.68;6.70;;;28.50;65.20;;;;;;5033041;28;20485;-72
2021/09/17 12:07:54;;;;;;;27.08;7.80;;;28.50;65.40;;;;;;5032848;28;20069;-73
2021/09/17 12:10:28;;;;;;;21.98;7.50;;;28.50;64.80;;;;;;5015150;28;20071;-74
2021/09/17 12:13:09;;;;;;;19.98;7.60;;;28.50;65.30;;;;;;5014975;28;20038;-73
2021/09/17 12:15:41;;;;;;;22.13;7.07;;;28.40;64.30;;;;;;5032603;28;20079;-71
2021/09/17 12:18:16;;;;;;;33.70;8.88;;;28.40;79.10;;;;;;5033013;28;20255;-72
2021/09/17 12:20:56;;;;;;;21.80;6.95;;;28.30;65.00;;;;;;5012876;28;20445;-72
2021/09/17 12:23:34;;;;;;;21.58;6.78;;;28.30;64.40;;;;;;5014181;28;20029;-71
2021/09/17 12:26:10;;;;;;;20.35;7.00;;;28.30;64.90;;;;;;5032538;28;20107;-72
2021/09/17 12:28:37;;;;;;;17.75;7.28;;;28.10;65.60;;;;;;5032527;28;20040;-72
2021/09/17 12:31:03;;;;;;;23.63;7.65;;;28.00;69.00;;;;;;5032436;28;20097;-70
2021/09/17 12:33:35;;;;;;;24.08;7.90;;;28.10;71.10;;;;;;5032548;28;20038;-70
2021/09/17 12:36:13;;;;;;;23.85;8.10;;;28.00;67.30;;;;;;5014959;28;20040;-70
2021/09/17 12:38:41;;;;;;;20.40;7.57;;;28.00;68.20;;;;;;5014682;28;20125;-71
2021/09/17 12:41:11;;;;;;;24.80;7.50;;;;;;;;;;5032776;28;20065;-72
2021/09/17 12:43:39;;;;;;;20.33;9.10;;;27.90;64.30;;;;;;5032632;28;20018;-69
2021/09/17 12:46:09;;;;;;;23.70;7.30;;;27.90;64.90;;;;;;5032566;28;20293;-70
2021/09/17 12:48:38;;;;;;;34.10;10.10;;;27.90;65.20;;;;;;5032695;28;20037;-72
2021/09/17 12:51:06;;;;;;;24.98;8.52;;;28.10;64.70;;;;;;5032712;28;20064;-75
2021/09/17 12:53:34;;;;;;;23.85;8.38;;;28.30;63.90;;;;;;5014787;28;20475;-71
2021/09/17 12:56:04;;;;;;;23.92;8.50;;;28.70;63.40;;;;;;5032454;28;20045;-68
2021/09/17 12:58:31;;;;;;;28.15;7.35;;;29.20;62.50;;;;;;5014811;28;20452;-70
2021/09/17 13:00:58;;;;;;;22.42;7.30;;;29.40;62.10;;;;;;5014691;28;20033;-70
2021/09/17 13:03:25;;;;;;;24.48;7.25;;;29.10;63.10;;;;;;5032799;28;20462;-70
2021/09/17 13:05:56;;;;;;;22.00;8.02;;;28.90;63.90;;;;;;5013452;28;20363;-73
2021/09/17 13:08:22;;;;;;;21.63;6.72;;;28.80;63.80;;;;;;5032266;28;20025;-72
2021/09/17 13:10:49;;;;;;;22.75;7.13;;;28.70;64.00;;;;;;5035179;28;20104;-70